Saturday, August 1, 2015, 6:09 PM EDT

KIPT, Williamsport-lycoming County

Location: Montoursville, PA, United States Lat: 41.25
Local Time: 6:09 PM EDT (22:09 GMT) Lon: -76.917
Time Zone: US/Eastern Elev: 528 ft

Show me the last for .
Show Decoded

2015-08-01 17:54 METAR KIPT 012154Z 29010KT 10SM FEW060 SCT075 BKN100 27/12 A2982 RMK AO2 SLP094
                 T02720117 =
2015-08-01 16:54 METAR KIPT 012054Z 26009KT 10SM SCT050 28/12 A2982 RMK AO2 SLP094 T02780117
                 56009 =
2015-08-01 15:54 METAR KIPT 011954Z 24010KT 10SM SCT050 BKN120 29/12 A2983 RMK AO2 SLP096
                 T02940122 =
2015-08-01 14:54 METAR KIPT 011854Z 26007KT 10SM FEW090 BKN110 28/13 A2984 RMK AO2 SLP101
                 T02780133 =
2015-08-01 13:54 METAR KIPT 011754Z 32008KT 10SM SCT065 BKN110 27/12 A2985 RMK AO2 SLP104
                 T02720122 10294 20217 58001 =
2015-08-01 12:54 METAR KIPT 011654Z 26007G15KT 10SM SCT041 BKN048 27/12 A2985 RMK AO2 SLP104
                 T02720117 =
2015-08-01 11:54 METAR KIPT 011554Z 25007KT 10SM FEW039 SCT050 28/16 A2985 RMK AO2 SLP106
                 T02780161 =
2015-08-01 10:54 METAR KIPT 011454Z 24008KT 10SM FEW036 FEW044 FEW055 26/16 A2985 =
2015-08-01 09:54 METAR KIPT 011354Z 25007KT 10SM CLR 25/16 A2985 RMK AO2 SLP106 T02500161 =
2015-08-01 08:54 METAR KIPT 011254Z 26010KT 10SM CLR 23/16 A2985 RMK AO2 SLP102 T02330161 =
2015-08-01 07:54 METAR KIPT 011154Z 30009KT 10SM CLR 22/17 A2984 RMK AO2 SLPNO T02170167 10217
                 20172 53007 =
2015-08-01 06:54 METAR KIPT 011054Z 00000KT 10SM CLR 18/16 A2983 RMK AO2 SLP097 T01830161 =
2015-08-01 05:54 METAR KIPT 010954Z AUTO 00000KT 10SM CLR 17/16 A2982 RMK AO2 SLP092 T01720156 =
2015-08-01 04:54 METAR KIPT 010854Z AUTO 00000KT 10SM BKN110 19/16 A2981 RMK AO2 SLP090 T01890161
                 55004 =
2015-08-01 03:54 METAR KIPT 010754Z AUTO 00000KT 10SM BKN110 19/16 A2981 RMK AO2 SLP089 T01890161
                 =
2015-08-01 02:54 METAR KIPT 010654Z AUTO 32006KT 10SM CLR 18/16 A2982 RMK AO2 SLP094 T01830161 =
2015-08-01 01:54 METAR KIPT 010554Z AUTO 00000KT 10SM CLR 18/16 A2982 RMK AO2 SLP096 T01830161
                 10289 20183 58003 =
2015-08-01 00:54 METAR KIPT 010454Z AUTO 00000KT 10SM CLR 20/17 A2983 RMK AO2 SLP097 T02000167
                 403940156 =
2015-07-31 23:54 METAR KIPT 010354Z AUTO 00000KT 10SM CLR 20/17 A2984 RMK AO2 SLP100 T02000167 =
2015-07-31 22:54 METAR KIPT 010254Z AUTO 00000KT 10SM CLR 22/17 A2984 RMK AO2 SLP100 T02170167
                 53010 =
2015-07-31 21:54 METAR KIPT 010154Z 34004KT 10SM CLR 23/17 A2982 RMK AO2 SLP094 T02280167 =
2015-07-31 20:54 METAR KIPT 010054Z 30004KT 10SM CLR 26/16 A2981 RMK AO2 SLP089 T02610156 =
2015-07-31 19:54 METAR KIPT 312354Z 21007KT 10SM FEW050 A2980 RMK AO2 SLPNO 10394 20294 55007 $ =
2015-07-31 18:54 METAR KIPT 312254Z 23007KT 10SM FEW050 35/15 A2980 RMK AO2 SLP088 T03500150 =

Support USWX by starting your Amazon purchase here.